createdAt,value
2022-09-10T22:01:03.829Z,25.90
2022-09-10T22:01:39.084Z,25.70
2022-09-10T22:02:14.391Z,26.10
2022-09-10T22:02:49.221Z,28.60
2022-09-10T22:03:24.998Z,29.90
2022-09-10T22:04:00.632Z,29.40
2022-09-10T22:04:35.906Z,28.90
2022-09-10T22:05:11.146Z,26.30
2022-09-10T22:05:46.320Z,31.20
2022-09-10T22:06:22.505Z,33.10
2022-09-10T22:06:57.707Z,30.90
2022-09-10T22:07:32.894Z,31.90
2022-09-10T22:08:07.953Z,32.90
2022-09-10T22:10:45.718Z,32.30
2022-09-10T22:11:21.006Z,33.80
2022-09-10T22:11:56.100Z,30.30
2022-09-10T22:12:31.277Z,33.90
2022-09-10T22:13:06.479Z,35.60
2022-09-10T22:13:41.776Z,32.00
2022-09-10T22:14:17.188Z,35.50
2022-09-10T22:14:52.393Z,36.50
2022-09-10T22:15:27.702Z,35.80
2022-09-10T22:16:03.098Z,36.70
2022-09-10T22:16:38.637Z,33.30
2022-09-10T22:17:13.928Z,32.80
2022-09-10T22:17:48.901Z,33.40
2022-09-10T22:18:24.499Z,32.60
2022-09-10T22:18:59.686Z,37.20
2022-09-10T22:19:34.779Z,40.10
2022-09-10T22:20:09.890Z,39.00
2022-09-10T22:20:44.865Z,35.00
2022-09-10T22:21:19.950Z,37.00
2022-09-10T22:21:55.071Z,37.60
2022-09-10T22:22:30.038Z,37.00
2022-09-10T22:23:05.367Z,39.20
2022-09-10T22:23:40.540Z,42.50
2022-09-10T22:24:15.929Z,38.20
2022-09-10T22:24:51.037Z,36.90
2022-09-10T22:25:25.955Z,41.80
2022-09-10T22:26:01.053Z,40.20
2022-09-10T22:26:36.126Z,38.20
2022-09-10T22:27:11.781Z,36.90
2022-09-10T22:27:46.966Z,35.40
2022-09-10T22:28:22.288Z,45.00
2022-09-10T22:28:57.894Z,42.40
2022-09-10T22:29:33.297Z,40.60
2022-09-10T22:30:08.493Z,39.10
2022-09-10T22:30:43.987Z,44.50
2022-09-10T22:31:19.444Z,46.00
2022-09-10T22:31:54.779Z,41.30
2022-09-10T22:32:30.005Z,39.80
2022-09-10T22:33:05.179Z,37.50
2022-09-10T22:33:40.598Z,38.30
2022-09-10T22:34:16.002Z,38.90
2022-09-10T22:34:51.218Z,39.90
2022-09-10T22:35:26.347Z,39.40
2022-09-10T22:36:01.642Z,36.30
2022-09-10T22:36:36.770Z,38.50
2022-09-10T22:37:11.992Z,36.70
2022-09-10T22:37:47.103Z,35.70
2022-09-10T22:38:22.620Z,40.50
2022-09-10T22:38:57.698Z,45.30
2022-09-10T22:39:32.781Z,41.50
2022-09-10T22:40:08.460Z,39.90
2022-09-10T22:40:43.508Z,40.00
2022-09-10T22:41:19.017Z,36.10
2022-09-10T22:41:54.207Z,35.00
2022-09-10T22:42:29.414Z,38.60
2022-09-10T22:43:04.588Z,44.00
2022-09-10T22:43:39.884Z,50.60
2022-09-10T22:44:15.192Z,47.70
2022-09-10T22:44:50.157Z,39.20
2022-09-10T22:45:25.361Z,41.30
2022-09-10T22:46:00.614Z,40.00
2022-09-10T22:46:36.053Z,37.70
2022-09-10T22:47:11.053Z,36.10
2022-09-10T22:47:46.572Z,37.80
2022-09-10T22:48:21.656Z,36.80
2022-09-10T22:48:56.860Z,34.70
2022-09-10T22:49:32.163Z,42.30
2022-09-10T22:50:07.467Z,39.10
2022-09-10T22:50:42.580Z,34.10
2022-09-10T22:51:17.681Z,38.60
2022-09-10T22:51:53.074Z,36.10
2022-09-10T22:52:28.656Z,36.10
2022-09-10T22:53:03.750Z,42.80
2022-09-10T22:53:39.132Z,44.20
2022-09-10T22:54:14.226Z,37.90
2022-09-10T22:54:49.457Z,37.60
2022-09-10T22:55:24.945Z,45.10
2022-09-10T22:56:00.352Z,39.30
2022-09-10T22:56:35.638Z,36.10
2022-09-10T22:57:10.753Z,43.00
2022-09-10T22:57:46.674Z,39.70
2022-09-10T22:58:21.754Z,34.90
2022-09-10T22:58:56.953Z,35.40
2022-09-10T22:59:32.430Z,35.30
2022-09-10T23:00:07.616Z,33.50
2022-09-10T23:00:42.710Z,34.10
2022-09-10T23:01:18.343Z,39.30
2022-09-10T23:01:53.594Z,40.40
2022-09-10T23:02:28.802Z,37.30
2022-09-10T23:03:03.913Z,36.50
2022-09-10T23:03:39.149Z,36.90
2022-09-10T23:04:14.230Z,42.70
2022-09-10T23:04:49.549Z,40.20
2022-09-10T23:05:24.537Z,39.10
2022-09-10T23:05:59.937Z,36.30
2022-09-10T23:06:35.253Z,36.20
2022-09-10T23:07:10.782Z,39.90
2022-09-10T23:07:46.352Z,40.70
2022-09-10T23:08:21.466Z,38.40
2022-09-10T23:08:56.510Z,40.90
2022-09-10T23:09:31.991Z,41.90
2022-09-10T23:10:07.171Z,38.70
2022-09-10T23:10:42.277Z,38.00
2022-09-10T23:11:17.868Z,43.00
2022-09-10T23:11:53.077Z,43.90
2022-09-10T23:12:28.475Z,48.60
2022-09-10T23:13:03.555Z,43.10
2022-09-10T23:13:38.839Z,39.10
2022-09-10T23:14:14.040Z,39.60
2022-09-10T23:14:49.232Z,36.90
2022-09-10T23:15:24.327Z,41.90
2022-09-10T23:15:59.548Z,42.50
2022-09-10T23:16:34.514Z,41.90
2022-09-10T23:17:09.910Z,36.30
2022-09-10T23:17:44.937Z,35.70
2022-09-10T23:18:20.023Z,40.70
2022-09-10T23:18:55.127Z,40.30
2022-09-10T23:19:30.302Z,39.00
2022-09-10T23:20:05.632Z,39.30
2022-09-10T23:20:41.325Z,42.30
2022-09-10T23:21:16.226Z,43.00
2022-09-10T23:21:51.564Z,42.10
2022-09-10T23:22:26.747Z,38.90
2022-09-10T23:23:02.034Z,37.90
2022-09-10T23:23:37.347Z,39.30
2022-09-10T23:24:12.417Z,40.70
2022-09-10T23:24:47.816Z,39.70
2022-09-10T23:25:22.932Z,38.70
2022-09-10T23:25:58.121Z,33.60
2022-09-10T23:26:33.437Z,34.20
2022-09-10T23:27:08.338Z,36.00
2022-09-10T23:27:43.840Z,39.40
2022-09-10T23:28:19.021Z,40.10
2022-09-10T23:28:54.429Z,41.20
2022-09-10T23:29:29.811Z,41.40
2022-09-10T23:30:05.013Z,42.90
2022-09-10T23:30:40.243Z,38.60
2022-09-10T23:31:15.815Z,41.70
2022-09-10T23:31:50.834Z,39.90
2022-09-10T23:32:26.154Z,39.50
2022-09-10T23:33:01.224Z,44.10
2022-09-10T23:33:36.320Z,39.80
2022-09-10T23:34:11.402Z,40.50
2022-09-10T23:34:46.609Z,41.20
2022-09-10T23:35:21.919Z,41.20
2022-09-10T23:35:57.216Z,46.00
2022-09-10T23:36:32.796Z,38.10
2022-09-10T23:37:07.904Z,46.30
2022-09-10T23:37:43.195Z,44.90
2022-09-10T23:38:18.522Z,40.50
2022-09-10T23:38:53.673Z,45.70
2022-09-10T23:39:28.864Z,44.30
2022-09-10T23:40:04.520Z,47.10
2022-09-10T23:40:39.755Z,49.50
2022-09-10T23:41:15.064Z,48.40
2022-09-10T23:41:50.479Z,46.90
2022-09-10T23:42:25.490Z,43.50
2022-09-10T23:43:00.759Z,48.90
2022-09-10T23:43:35.954Z,48.80
2022-09-10T23:44:11.024Z,46.20
2022-09-10T23:44:46.375Z,42.10
2022-09-10T23:45:21.695Z,42.40
2022-09-10T23:45:57.186Z,39.50
2022-09-10T23:46:32.552Z,41.20
2022-09-10T23:47:07.871Z,41.20
2022-09-10T23:47:43.167Z,48.00
2022-09-10T23:48:18.355Z,40.60
2022-09-10T23:48:53.445Z,37.00
2022-09-10T23:49:28.550Z,37.80
2022-09-10T23:50:03.954Z,40.40
2022-09-10T23:50:39.554Z,43.20
2022-09-10T23:51:14.827Z,43.70
2022-09-10T23:51:50.240Z,44.20
2022-09-10T23:52:25.869Z,49.10
2022-09-10T23:53:01.131Z,48.50
2022-09-10T23:53:36.837Z,46.40
2022-09-10T23:54:11.924Z,49.30
2022-09-10T23:54:47.112Z,46.40
2022-09-10T23:55:22.190Z,44.90
2022-09-10T23:55:57.283Z,43.50
2022-09-10T23:56:32.682Z,44.40
2022-09-10T23:57:08.170Z,45.60
2022-09-10T23:57:43.174Z,45.10
2022-09-10T23:58:18.144Z,54.70
2022-09-10T23:58:53.259Z,52.00
2022-09-10T23:59:28.353Z,43.90
